Cic Pride — H9SQ — position and weather

sailwx.info

Track history (hours):
 
Tides and Currents Weather Stations Pressure Air Temp Water Temp Dewpoint Dewpoint Depression Visibility Wind Speed Wind Dir Waves Ship Positions

Cic Pride

Last reported at 2017-May-19 03:42 UTC. Time now 2017-May-22 21:32 UTC.
Position N 01°57' E 102°16'.

Length 289 m; draft 9.5 m.

Type: Cargo ship. MMSI: 351111000.

Date/timePositionNaut miles runAvg speedWind from/ knotsBaromVisibWave heightAir tempDewpointWater temp
2017-May-19 03:42N 01°57' E 102°16'314.2
2017-May-19 03:29N 01°56' E 102°18'714.9
2017-May-19 03:01N 01°53' E 102°25'815.4
2017-May-19 02:30N 01°49' E 102°32'5416.1
2017-May-18 23:09N 01°21' E 103°18'516.7
2017-May-18 22:50N 01°17' E 103°21'616.3
2017-May-18 22:30N 01°14' E 103°26'815.5
2017-May-18 22:00N 01°12' E 103°33'713.5
2017-May-18 21:30N 01°11' E 103°40'611.6
2017-May-18 21:00N 01°09' E 103°45'612.1
2017-May-18 20:30N 01°12' E 103°50'610.6
2017-May-18 19:58N 01°14' E 103°56'9 9.2
2017-May-18 18:59N 01°18' E 104°04'0 0.0
2017-May-18 09:28N 01°18' E 104°04'0 0.0
2017-May-18 06:49N 01°18' E 104°04'0 0.1
2017-May-18 05:01N 01°18' E 104°04'0 0.0
2017-May-18 04:58N 01°18' E 104°04'1 0.2
2017-May-18 01:48N 01°18' E 104°04'1 4.2
2017-May-18 01:30N 01°19' E 104°05'  
Track history (hours):
 
Tides and Currents Weather Stations Pressure Air Temp Water Temp Dewpoint Dewpoint Depression Visibility Wind Speed Wind Dir Waves Ship Positions

Cic Pride

Last reported at 2017-May-19 03:42 UTC. Time now 2017-May-22 21:32 UTC.
Position N 01°57' E 102°16'.

Length 289 m; draft 9.5 m.

Type: Cargo ship. MMSI: 351111000.

Date/timePositionNaut miles runAvg speedWind from/ knotsBaromVisibWave heightAir tempDewpointWater temp
2017-May-19 03:42N 01°57' E 102°16'314.2
2017-May-19 03:29N 01°56' E 102°18'714.9
2017-May-19 03:01N 01°53' E 102°25'815.4
2017-May-19 02:30N 01°49' E 102°32'5416.1
2017-May-18 23:09N 01°21' E 103°18'516.7
2017-May-18 22:50N 01°17' E 103°21'616.3
2017-May-18 22:30N 01°14' E 103°26'815.5
2017-May-18 22:00N 01°12' E 103°33'713.5
2017-May-18 21:30N 01°11' E 103°40'611.6
2017-May-18 21:00N 01°09' E 103°45'612.1
2017-May-18 20:30N 01°12' E 103°50'610.6
2017-May-18 19:58N 01°14' E 103°56'9 9.2
2017-May-18 18:59N 01°18' E 104°04'0 0.0
2017-May-18 09:28N 01°18' E 104°04'0 0.0
2017-May-18 06:49N 01°18' E 104°04'0 0.1
2017-May-18 05:01N 01°18' E 104°04'0 0.0
2017-May-18 04:58N 01°18' E 104°04'1 0.2
2017-May-18 01:48N 01°18' E 104°04'1 4.2
2017-May-18 01:30N 01°19' E 104°05'  

Dump ship's entire track history